EGQL/ADX METAR and TAF weather

Enter ICAO airport designator
Station Type Date Time Source
EGQL METAR 2021/03/01 03:50 UTC NOAA

EGQL 010350Z 27003KT 9999 OVC039 06/04 Q1034 BLU


Station Type Date Time Source
EGQL Decoded METAR 2021/03/01 03:50 UTC NOAA

Leuchars, United Kingdom (EGQL) 56-23N 002-52W 0M
Feb 28, 2021 - 10:50 PM EST / 2021.03.01 0350 UTC
Wind: from the W (270 degrees) at 3 MPH (3 KT):0
Visibility: greater than 7 mile(s):0
Sky conditions: overcast
Temperature: 42 F (6 C)
Dew Point: 39 F (4 C)
Relative Humidity: 86%
Pressure (altimeter): 30.53 in. Hg (1034 hPa)
ob: EGQL 010350Z 27003KT 9999 OVC039 06/04 Q1034 BLU
cycle: 4

Station Type Date Time Source
EGQL TAF 2011/07/27 06:03 UTC NOAA

TAF TAF
AMD EGQL 270424Z 2706/2724 14005KT 9999 BKN020 PROB30
TEMPO 2706/2708 SCT012
BECMG 2708/2710 SCT025

Example: see airport list